sensor_id;sensor_type;location;lat;lon;timestamp;P1;durP1;ratioP1;P2;durP2;ratioP2
68757;SDS011;55747;51.998;4.466;2022-07-10T00:00:11;3.92;;;1.73;;
68757;SDS011;55747;51.998;4.466;2022-07-10T00:02:39;4.32;;;1.70;;
68757;SDS011;55747;51.998;4.466;2022-07-10T00:05:05;4.15;;;1.45;;
68757;SDS011;55747;51.998;4.466;2022-07-10T00:07:31;5.55;;;1.77;;
68757;SDS011;55747;51.998;4.466;2022-07-10T00:09:56;5.78;;;2.00;;
68757;SDS011;55747;51.998;4.466;2022-07-10T00:12:21;4.32;;;1.48;;
68757;SDS011;55747;51.998;4.466;2022-07-10T00:14:47;6.32;;;1.88;;
68757;SDS011;55747;51.998;4.466;2022-07-10T00:17:12;5.53;;;1.80;;
68757;SDS011;55747;51.998;4.466;2022-07-10T00:19:37;3.67;;;1.67;;
68757;SDS011;55747;51.998;4.466;2022-07-10T00:22:03;3.42;;;1.42;;
68757;SDS011;55747;51.998;4.466;2022-07-10T00:24:28;4.10;;;1.70;;
68757;SDS011;55747;51.998;4.466;2022-07-10T00:26:54;8.55;;;1.90;;
68757;SDS011;55747;51.998;4.466;2022-07-10T00:29:19;4.00;;;1.70;;
68757;SDS011;55747;51.998;4.466;2022-07-10T00:31:44;3.73;;;1.43;;
68757;SDS011;55747;51.998;4.466;2022-07-10T00:34:09;4.13;;;1.50;;
68757;SDS011;55747;51.998;4.466;2022-07-10T00:36:35;5.05;;;2.22;;
68757;SDS011;55747;51.998;4.466;2022-07-10T00:39:01;3.80;;;1.45;;
68757;SDS011;55747;51.998;4.466;2022-07-10T00:41:26;5.28;;;1.90;;
68757;SDS011;55747;51.998;4.466;2022-07-10T00:43:52;7.10;;;1.77;;
68757;SDS011;55747;51.998;4.466;2022-07-10T00:46:19;3.38;;;1.55;;
68757;SDS011;55747;51.998;4.466;2022-07-10T00:48:47;5.70;;;1.70;;
68757;SDS011;55747;51.998;4.466;2022-07-10T00:51:14;4.22;;;1.50;;
68757;SDS011;55747;51.998;4.466;2022-07-10T00:53:41;6.30;;;1.60;;
68757;SDS011;55747;51.998;4.466;2022-07-10T00:56:07;7.35;;;1.80;;
68757;SDS011;55747;51.998;4.466;2022-07-10T00:58:34;7.63;;;2.00;;
68757;SDS011;55747;51.998;4.466;2022-07-10T01:00:59;5.45;;;2.00;;
68757;SDS011;55747;51.998;4.466;2022-07-10T01:03:27;5.38;;;1.50;;
68757;SDS011;55747;51.998;4.466;2022-07-10T01:05:52;6.60;;;1.80;;
68757;SDS011;55747;51.998;4.466;2022-07-10T01:08:17;4.22;;;1.55;;
68757;SDS011;55747;51.998;4.466;2022-07-10T01:10:43;4.88;;;1.50;;
68757;SDS011;55747;51.998;4.466;2022-07-10T01:13:09;3.95;;;1.23;;
68757;SDS011;55747;51.998;4.466;2022-07-10T01:15:35;3.30;;;1.45;;
68757;SDS011;55747;51.998;4.466;2022-07-10T01:18:01;4.65;;;1.42;;
68757;SDS011;55747;51.998;4.466;2022-07-10T01:20:30;4.55;;;1.50;;
68757;SDS011;55747;51.998;4.466;2022-07-10T01:23:00;5.32;;;1.70;;
68757;SDS011;55747;51.998;4.466;2022-07-10T01:25:26;6.57;;;1.38;;
68757;SDS011;55747;51.998;4.466;2022-07-10T01:27:51;3.85;;;1.48;;
68757;SDS011;55747;51.998;4.466;2022-07-10T01:30:17;3.75;;;1.42;;
68757;SDS011;55747;51.998;4.466;2022-07-10T01:32:44;4.72;;;1.55;;
68757;SDS011;55747;51.998;4.466;2022-07-10T01:35:09;6.38;;;1.90;;
68757;SDS011;55747;51.998;4.466;2022-07-10T01:37:35;5.32;;;1.90;;
68757;SDS011;55747;51.998;4.466;2022-07-10T01:40:01;4.80;;;1.60;;
68757;SDS011;55747;51.998;4.466;2022-07-10T01:42:27;7.63;;;1.65;;
68757;SDS011;55747;51.998;4.466;2022-07-10T01:44:52;7.57;;;1.50;;
68757;SDS011;55747;51.998;4.466;2022-07-10T01:47:18;4.20;;;1.52;;
68757;SDS011;55747;51.998;4.466;2022-07-10T01:49:43;8.95;;;1.92;;
68757;SDS011;55747;51.998;4.466;2022-07-10T01:52:09;5.80;;;1.77;;
68757;SDS011;55747;51.998;4.466;2022-07-10T01:54:35;5.35;;;1.60;;
68757;SDS011;55747;51.998;4.466;2022-07-10T01:57:00;6.35;;;1.60;;
68757;SDS011;55747;51.998;4.466;2022-07-10T01:59:26;4.90;;;1.48;;
68757;SDS011;55747;51.998;4.466;2022-07-10T02:01:51;5.97;;;1.70;;
68757;SDS011;55747;51.998;4.466;2022-07-10T02:04:16;4.23;;;1.70;;
68757;SDS011;55747;51.998;4.466;2022-07-10T02:07:00;3.75;;;1.60;;
68757;SDS011;55747;51.998;4.466;2022-07-10T02:09:25;3.67;;;1.50;;
68757;SDS011;55747;51.998;4.466;2022-07-10T02:11:51;3.00;;;1.40;;
68757;SDS011;55747;51.998;4.466;2022-07-10T02:14:16;5.70;;;1.65;;
68757;SDS011;55747;51.998;4.466;2022-07-10T02:16:41;5.20;;;1.80;;
68757;SDS011;55747;51.998;4.466;2022-07-10T02:19:08;3.75;;;1.60;;
68757;SDS011;55747;51.998;4.466;2022-07-10T02:21:34;7.30;;;1.60;;
68757;SDS011;55747;51.998;4.466;2022-07-10T02:23:59;5.40;;;1.60;;
68757;SDS011;55747;51.998;4.466;2022-07-10T02:26:24;4.43;;;1.80;;
68757;SDS011;55747;51.998;4.466;2022-07-10T02:28:49;6.30;;;1.88;;
68757;SDS011;55747;51.998;4.466;2022-07-10T02:31:15;9.57;;;1.77;;
68757;SDS011;55747;51.998;4.466;2022-07-10T02:33:40;6.63;;;2.08;;
68757;SDS011;55747;51.998;4.466;2022-07-10T02:36:05;7.27;;;1.57;;
68757;SDS011;55747;51.998;4.466;2022-07-10T02:38:31;6.07;;;1.90;;
68757;SDS011;55747;51.998;4.466;2022-07-10T02:40:56;4.03;;;1.73;;
68757;SDS011;55747;51.998;4.466;2022-07-10T02:43:21;8.90;;;1.80;;
68757;SDS011;55747;51.998;4.466;2022-07-10T02:45:47;4.57;;;1.80;;
68757;SDS011;55747;51.998;4.466;2022-07-10T02:48:13;4.68;;;1.45;;
68757;SDS011;55747;51.998;4.466;2022-07-10T02:50:39;7.40;;;1.80;;
68757;SDS011;55747;51.998;4.466;2022-07-10T02:53:04;4.47;;;1.80;;
68757;SDS011;55747;51.998;4.466;2022-07-10T02:55:30;8.13;;;2.17;;
68757;SDS011;55747;51.998;4.466;2022-07-10T02:57:56;4.97;;;1.70;;
68757;SDS011;55747;51.998;4.466;2022-07-10T03:00:23;6.97;;;1.95;;
68757;SDS011;55747;51.998;4.466;2022-07-10T03:02:49;5.80;;;1.93;;
68757;SDS011;55747;51.998;4.466;2022-07-10T03:05:14;7.65;;;2.00;;
68757;SDS011;55747;51.998;4.466;2022-07-10T03:07:39;5.47;;;1.77;;
68757;SDS011;55747;51.998;4.466;2022-07-10T03:10:04;3.45;;;1.80;;
68757;SDS011;55747;51.998;4.466;2022-07-10T03:12:30;7.82;;;1.80;;
68757;SDS011;55747;51.998;4.466;2022-07-10T03:14:55;4.90;;;1.60;;
68757;SDS011;55747;51.998;4.466;2022-07-10T03:17:21;4.93;;;1.60;;
68757;SDS011;55747;51.998;4.466;2022-07-10T03:19:46;3.90;;;1.67;;
68757;SDS011;55747;51.998;4.466;2022-07-10T03:22:11;5.00;;;1.80;;
68757;SDS011;55747;51.998;4.466;2022-07-10T03:24:36;4.20;;;1.77;;
68757;SDS011;55747;51.998;4.466;2022-07-10T03:27:02;5.30;;;1.57;;
68757;SDS011;55747;51.998;4.466;2022-07-10T03:29:27;3.97;;;1.58;;
68757;SDS011;55747;51.998;4.466;2022-07-10T03:31:52;5.37;;;1.60;;
68757;SDS011;55747;51.998;4.466;2022-07-10T03:34:18;4.93;;;1.80;;
68757;SDS011;55747;51.998;4.466;2022-07-10T03:36:43;7.28;;;1.90;;
68757;SDS011;55747;51.998;4.466;2022-07-10T03:39:08;4.32;;;1.70;;
68757;SDS011;55747;51.998;4.466;2022-07-10T03:41:34;4.65;;;1.50;;
68757;SDS011;55747;51.998;4.466;2022-07-10T03:44:00;8.10;;;1.83;;
68757;SDS011;55747;51.998;4.466;2022-07-10T03:46:25;4.53;;;1.40;;
68757;SDS011;55747;51.998;4.466;2022-07-10T03:48:50;7.25;;;1.90;;
68757;SDS011;55747;51.998;4.466;2022-07-10T03:51:16;5.22;;;1.63;;
68757;SDS011;55747;51.998;4.466;2022-07-10T03:53:42;6.23;;;1.50;;
68757;SDS011;55747;51.998;4.466;2022-07-10T03:56:07;9.15;;;1.73;;
68757;SDS011;55747;51.998;4.466;2022-07-10T03:58:32;8.10;;;1.60;;
68757;SDS011;55747;51.998;4.466;2022-07-10T04:00:57;4.83;;;1.50;;
68757;SDS011;55747;51.998;4.466;2022-07-10T04:03:23;9.13;;;1.87;;
68757;SDS011;55747;51.998;4.466;2022-07-10T04:05:48;6.82;;;1.70;;
68757;SDS011;55747;51.998;4.466;2022-07-10T04:08:14;7.93;;;1.70;;
68757;SDS011;55747;51.998;4.466;2022-07-10T04:10:39;6.65;;;1.58;;
68757;SDS011;55747;51.998;4.466;2022-07-10T04:13:04;4.80;;;1.70;;
68757;SDS011;55747;51.998;4.466;2022-07-10T04:15:30;7.60;;;1.70;;
68757;SDS011;55747;51.998;4.466;2022-07-10T04:17:55;6.10;;;1.70;;
68757;SDS011;55747;51.998;4.466;2022-07-10T04:20:20;7.00;;;1.80;;
68757;SDS011;55747;51.998;4.466;2022-07-10T04:22:46;5.13;;;1.83;;
68757;SDS011;55747;51.998;4.466;2022-07-10T04:25:12;6.22;;;1.83;;
68757;SDS011;55747;51.998;4.466;2022-07-10T04:27:37;8.25;;;1.63;;
68757;SDS011;55747;51.998;4.466;2022-07-10T04:30:03;6.50;;;1.67;;
68757;SDS011;55747;51.998;4.466;2022-07-10T04:32:29;5.43;;;1.90;;
68757;SDS011;55747;51.998;4.466;2022-07-10T04:34:55;5.00;;;1.97;;
68757;SDS011;55747;51.998;4.466;2022-07-10T04:37:20;9.35;;;1.55;;
68757;SDS011;55747;51.998;4.466;2022-07-10T04:39:45;4.88;;;1.65;;
68757;SDS011;55747;51.998;4.466;2022-07-10T04:42:11;5.93;;;1.85;;
68757;SDS011;55747;51.998;4.466;2022-07-10T04:44:36;7.28;;;1.80;;
68757;SDS011;55747;51.998;4.466;2022-07-10T04:47:02;6.13;;;1.70;;
68757;SDS011;55747;51.998;4.466;2022-07-10T04:49:28;6.55;;;1.80;;
68757;SDS011;55747;51.998;4.466;2022-07-10T04:51:53;4.60;;;1.67;;
68757;SDS011;55747;51.998;4.466;2022-07-10T04:54:19;6.38;;;1.90;;
68757;SDS011;55747;51.998;4.466;2022-07-10T04:56:44;4.57;;;1.42;;
68757;SDS011;55747;51.998;4.466;2022-07-10T04:59:10;7.93;;;1.92;;
68757;SDS011;55747;51.998;4.466;2022-07-10T05:01:36;4.78;;;1.75;;
68757;SDS011;55747;51.998;4.466;2022-07-10T05:04:02;6.47;;;2.22;;
68757;SDS011;55747;51.998;4.466;2022-07-10T05:06:27;6.00;;;1.50;;
68757;SDS011;55747;51.998;4.466;2022-07-10T05:08:53;6.43;;;1.73;;
68757;SDS011;55747;51.998;4.466;2022-07-10T05:11:20;3.33;;;1.23;;
68757;SDS011;55747;51.998;4.466;2022-07-10T05:13:45;5.10;;;1.63;;
68757;SDS011;55747;51.998;4.466;2022-07-10T05:16:13;4.60;;;1.40;;
68757;SDS011;55747;51.998;4.466;2022-07-10T05:18:41;4.50;;;1.20;;
68757;SDS011;55747;51.998;4.466;2022-07-10T05:21:07;6.60;;;1.60;;
68757;SDS011;55747;51.998;4.466;2022-07-10T05:23:33;5.72;;;1.55;;
68757;SDS011;55747;51.998;4.466;2022-07-10T05:25:59;6.22;;;1.63;;
68757;SDS011;55747;51.998;4.466;2022-07-10T05:28:24;5.50;;;1.40;;
68757;SDS011;55747;51.998;4.466;2022-07-10T05:30:50;4.85;;;1.30;;
68757;SDS011;55747;51.998;4.466;2022-07-10T05:33:16;6.57;;;1.73;;
68757;SDS011;55747;51.998;4.466;2022-07-10T05:35:41;7.75;;;1.50;;
68757;SDS011;55747;51.998;4.466;2022-07-10T05:38:07;5.67;;;1.80;;
68757;SDS011;55747;51.998;4.466;2022-07-10T05:40:32;5.47;;;1.55;;
68757;SDS011;55747;51.998;4.466;2022-07-10T05:42:57;3.63;;;1.47;;
68757;SDS011;55747;51.998;4.466;2022-07-10T05:45:23;4.15;;;1.10;;
68757;SDS011;55747;51.998;4.466;2022-07-10T05:47:48;5.03;;;1.20;;
68757;SDS011;55747;51.998;4.466;2022-07-10T05:50:13;3.60;;;1.20;;
68757;SDS011;55747;51.998;4.466;2022-07-10T05:52:39;4.20;;;1.43;;
68757;SDS011;55747;51.998;4.466;2022-07-10T05:55:04;5.03;;;1.40;;
68757;SDS011;55747;51.998;4.466;2022-07-10T05:57:30;4.30;;;1.50;;
68757;SDS011;55747;51.998;4.466;2022-07-10T05:59:56;6.40;;;1.42;;
68757;SDS011;55747;51.998;4.466;2022-07-10T06:02:22;4.55;;;1.33;;
68757;SDS011;55747;51.998;4.466;2022-07-10T06:04:47;5.43;;;1.33;;
68757;SDS011;55747;51.998;4.466;2022-07-10T06:07:12;5.57;;;1.20;;
68757;SDS011;55747;51.998;4.466;2022-07-10T06:09:38;4.75;;;1.30;;
68757;SDS011;55747;51.998;4.466;2022-07-10T06:12:03;3.95;;;1.30;;
68757;SDS011;55747;51.998;4.466;2022-07-10T06:14:29;5.72;;;1.45;;
68757;SDS011;55747;51.998;4.466;2022-07-10T06:16:54;4.35;;;1.40;;
68757;SDS011;55747;51.998;4.466;2022-07-10T06:19:20;3.40;;;1.10;;
68757;SDS011;55747;51.998;4.466;2022-07-10T06:21:50;8.00;;;1.60;;
68757;SDS011;55747;51.998;4.466;2022-07-10T06:24:35;5.55;;;1.30;;
68757;SDS011;55747;51.998;4.466;2022-07-10T06:27:01;4.95;;;1.45;;
68757;SDS011;55747;51.998;4.466;2022-07-10T06:29:26;6.45;;;1.60;;
68757;SDS011;55747;51.998;4.466;2022-07-10T06:31:52;4.17;;;1.40;;
68757;SDS011;55747;51.998;4.466;2022-07-10T06:34:17;6.83;;;1.50;;
68757;SDS011;55747;51.998;4.466;2022-07-10T06:36:42;5.57;;;1.60;;
68757;SDS011;55747;51.998;4.466;2022-07-10T06:39:07;5.53;;;1.33;;
68757;SDS011;55747;51.998;4.466;2022-07-10T06:41:33;5.00;;;1.30;;
68757;SDS011;55747;51.998;4.466;2022-07-10T06:43:58;4.43;;;1.27;;
68757;SDS011;55747;51.998;4.466;2022-07-10T06:46:25;4.72;;;1.40;;
68757;SDS011;55747;51.998;4.466;2022-07-10T06:48:51;4.43;;;1.50;;
68757;SDS011;55747;51.998;4.466;2022-07-10T06:51:16;6.45;;;1.35;;
68757;SDS011;55747;51.998;4.466;2022-07-10T06:53:41;5.90;;;1.40;;
68757;SDS011;55747;51.998;4.466;2022-07-10T06:56:07;4.30;;;1.23;;
68757;SDS011;55747;51.998;4.466;2022-07-10T06:58:32;4.25;;;1.40;;
68757;SDS011;55747;51.998;4.466;2022-07-10T07:00:57;4.33;;;1.33;;
68757;SDS011;55747;51.998;4.466;2022-07-10T07:03:23;6.35;;;1.48;;
68757;SDS011;55747;51.998;4.466;2022-07-10T07:05:48;3.80;;;1.37;;
68757;SDS011;55747;51.998;4.466;2022-07-10T07:08:14;5.72;;;1.25;;
68757;SDS011;55747;51.998;4.466;2022-07-10T07:10:41;5.10;;;1.30;;
68757;SDS011;55747;51.998;4.466;2022-07-10T07:13:06;4.20;;;1.40;;
68757;SDS011;55747;51.998;4.466;2022-07-10T07:15:34;4.22;;;1.40;;
68757;SDS011;55747;51.998;4.466;2022-07-10T07:18:03;5.75;;;1.42;;
68757;SDS011;55747;51.998;4.466;2022-07-10T07:20:37;3.60;;;1.20;;
68757;SDS011;55747;51.998;4.466;2022-07-10T07:23:22;4.85;;;1.20;;
68757;SDS011;55747;51.998;4.466;2022-07-10T07:25:48;3.97;;;1.17;;
68757;SDS011;55747;51.998;4.466;2022-07-10T07:28:14;5.03;;;1.38;;
68757;SDS011;55747;51.998;4.466;2022-07-10T07:30:41;3.75;;;1.23;;
68757;SDS011;55747;51.998;4.466;2022-07-10T07:33:07;5.03;;;1.40;;
68757;SDS011;55747;51.998;4.466;2022-07-10T07:35:32;5.63;;;1.30;;
68757;SDS011;55747;51.998;4.466;2022-07-10T07:37:58;2.70;;;1.03;;
68757;SDS011;55747;51.998;4.466;2022-07-10T07:40:23;4.45;;;1.23;;
68757;SDS011;55747;51.998;4.466;2022-07-10T07:42:49;3.22;;;1.00;;
68757;SDS011;55747;51.998;4.466;2022-07-10T07:45:15;5.28;;;1.23;;
68757;SDS011;55747;51.998;4.466;2022-07-10T07:47:51;4.10;;;1.10;;
68757;SDS011;55747;51.998;4.466;2022-07-10T07:50:18;4.20;;;1.35;;
68757;SDS011;55747;51.998;4.466;2022-07-10T07:52:51;4.80;;;1.20;;
68757;SDS011;55747;51.998;4.466;2022-07-10T07:55:17;3.50;;;1.30;;
68757;SDS011;55747;51.998;4.466;2022-07-10T07:57:44;4.20;;;1.20;;
68757;SDS011;55747;51.998;4.466;2022-07-10T08:00:10;3.35;;;1.05;;
68757;SDS011;55747;51.998;4.466;2022-07-10T08:02:37;4.57;;;1.02;;
68757;SDS011;55747;51.998;4.466;2022-07-10T08:05:03;7.07;;;1.45;;
68757;SDS011;55747;51.998;4.466;2022-07-10T08:10:04;6.18;;;1.40;;
68757;SDS011;55747;51.998;4.466;2022-07-10T08:12:32;3.15;;;1.15;;
68757;SDS011;55747;51.998;4.466;2022-07-10T08:14:58;4.50;;;1.20;;
68757;SDS011;55747;51.998;4.466;2022-07-10T08:17:24;3.40;;;1.42;;
68757;SDS011;55747;51.998;4.466;2022-07-10T08:19:49;3.67;;;1.30;;
68757;SDS011;55747;51.998;4.466;2022-07-10T08:22:15;5.17;;;1.50;;
68757;SDS011;55747;51.998;4.466;2022-07-10T08:24:40;4.32;;;1.30;;
68757;SDS011;55747;51.998;4.466;2022-07-10T08:27:05;3.78;;;1.10;;
68757;SDS011;55747;51.998;4.466;2022-07-10T08:29:33;5.57;;;1.20;;
68757;SDS011;55747;51.998;4.466;2022-07-10T08:31:59;4.43;;;1.23;;
68757;SDS011;55747;51.998;4.466;2022-07-10T08:34:25;3.30;;;0.85;;
68757;SDS011;55747;51.998;4.466;2022-07-10T08:36:51;3.47;;;1.13;;
68757;SDS011;55747;51.998;4.466;2022-07-10T08:39:16;2.60;;;1.17;;
68757;SDS011;55747;51.998;4.466;2022-07-10T08:41:45;3.13;;;1.27;;
68757;SDS011;55747;51.998;4.466;2022-07-10T08:44:15;4.57;;;1.30;;
68757;SDS011;55747;51.998;4.466;2022-07-10T08:46:40;2.17;;;0.95;;
68757;SDS011;55747;51.998;4.466;2022-07-10T08:49:08;4.95;;;1.00;;
68757;SDS011;55747;51.998;4.466;2022-07-10T08:51:44;2.92;;;1.20;;
68757;SDS011;55747;51.998;4.466;2022-07-10T08:54:10;3.60;;;1.25;;
68757;SDS011;55747;51.998;4.466;2022-07-10T08:56:39;4.38;;;1.13;;
68757;SDS011;55747;51.998;4.466;2022-07-10T08:59:05;5.43;;;1.02;;
68757;SDS011;55747;51.998;4.466;2022-07-10T09:01:35;4.57;;;1.20;;
68757;SDS011;55747;51.998;4.466;2022-07-10T09:04:00;5.70;;;1.23;;
68757;SDS011;55747;51.998;4.466;2022-07-10T09:06:27;3.17;;;1.10;;
68757;SDS011;55747;51.998;4.466;2022-07-10T09:09:00;2.20;;;1.00;;
68757;SDS011;55747;51.998;4.466;2022-07-10T09:11:28;2.28;;;1.05;;
68757;SDS011;55747;51.998;4.466;2022-07-10T09:13:59;6.43;;;1.60;;
68757;SDS011;55747;51.998;4.466;2022-07-10T09:16:28;4.50;;;1.27;;
68757;SDS011;55747;51.998;4.466;2022-07-10T09:18:55;5.03;;;1.30;;
68757;SDS011;55747;51.998;4.466;2022-07-10T09:21:22;3.00;;;1.10;;
68757;SDS011;55747;51.998;4.466;2022-07-10T09:23:48;5.38;;;1.25;;
68757;SDS011;55747;51.998;4.466;2022-07-10T09:26:13;4.15;;;1.48;;
68757;SDS011;55747;51.998;4.466;2022-07-10T09:28:39;3.25;;;1.20;;
68757;SDS011;55747;51.998;4.466;2022-07-10T09:31:05;2.03;;;1.00;;
68757;SDS011;55747;51.998;4.466;2022-07-10T09:33:30;3.20;;;1.10;;
68757;SDS011;55747;51.998;4.466;2022-07-10T09:36:03;4.90;;;1.05;;
68757;SDS011;55747;51.998;4.466;2022-07-10T09:43:50;4.30;;;1.10;;
68757;SDS011;55747;51.998;4.466;2022-07-10T09:46:23;4.40;;;1.30;;
68757;SDS011;55747;51.998;4.466;2022-07-10T09:49:03;2.58;;;1.15;;
68757;SDS011;55747;51.998;4.466;2022-07-10T09:51:36;3.95;;;1.30;;
68757;SDS011;55747;51.998;4.466;2022-07-10T09:54:02;4.65;;;1.27;;
68757;SDS011;55747;51.998;4.466;2022-07-10T09:56:34;4.10;;;1.25;;
68757;SDS011;55747;51.998;4.466;2022-07-10T09:59:11;2.83;;;1.17;;
68757;SDS011;55747;51.998;4.466;2022-07-10T10:01:38;3.42;;;1.00;;
68757;SDS011;55747;51.998;4.466;2022-07-10T10:04:24;3.10;;;0.90;;
68757;SDS011;55747;51.998;4.466;2022-07-10T10:06:55;2.88;;;1.10;;
68757;SDS011;55747;51.998;4.466;2022-07-10T10:09:29;3.65;;;1.15;;
68757;SDS011;55747;51.998;4.466;2022-07-10T10:12:07;3.05;;;1.08;;
68757;SDS011;55747;51.998;4.466;2022-07-10T10:14:38;2.70;;;1.10;;
68757;SDS011;55747;51.998;4.466;2022-07-10T10:17:05;4.78;;;1.20;;
68757;SDS011;55747;51.998;4.466;2022-07-10T10:19:31;4.60;;;1.23;;
68757;SDS011;55747;51.998;4.466;2022-07-10T10:22:15;4.28;;;1.20;;
68757;SDS011;55747;51.998;4.466;2022-07-10T10:24:43;3.63;;;1.00;;
68757;SDS011;55747;51.998;4.466;2022-07-10T10:27:10;3.45;;;1.08;;
68757;SDS011;55747;51.998;4.466;2022-07-10T10:29:36;5.22;;;1.30;;
68757;SDS011;55747;51.998;4.466;2022-07-10T10:32:03;4.20;;;1.30;;
68757;SDS011;55747;51.998;4.466;2022-07-10T10:34:41;3.20;;;1.10;;
68757;SDS011;55747;51.998;4.466;2022-07-10T10:40:33;4.82;;;1.13;;
68757;SDS011;55747;51.998;4.466;2022-07-10T10:42:59;4.78;;;1.27;;
68757;SDS011;55747;51.998;4.466;2022-07-10T10:45:45;5.13;;;1.27;;
68757;SDS011;55747;51.998;4.466;2022-07-10T10:48:15;4.45;;;1.15;;
68757;SDS011;55747;51.998;4.466;2022-07-10T10:53:14;3.80;;;1.15;;
68757;SDS011;55747;51.998;4.466;2022-07-10T10:58:25;2.72;;;1.10;;
68757;SDS011;55747;51.998;4.466;2022-07-10T11:00:50;3.25;;;1.20;;
68757;SDS011;55747;51.998;4.466;2022-07-10T11:03:17;3.58;;;1.10;;
68757;SDS011;55747;51.998;4.466;2022-07-10T11:05:44;2.95;;;1.10;;
68757;SDS011;55747;51.998;4.466;2022-07-10T11:08:11;3.70;;;1.10;;
68757;SDS011;55747;51.998;4.466;2022-07-10T11:10:41;3.58;;;1.27;;
68757;SDS011;55747;51.998;4.466;2022-07-10T11:15:40;2.38;;;0.95;;
68757;SDS011;55747;51.998;4.466;2022-07-10T11:18:10;3.00;;;1.10;;
68757;SDS011;55747;51.998;4.466;2022-07-10T11:20:46;1.77;;;1.00;;
68757;SDS011;55747;51.998;4.466;2022-07-10T11:26:06;1.67;;;0.70;;
68757;SDS011;55747;51.998;4.466;2022-07-10T11:31:24;3.42;;;1.10;;
68757;SDS011;55747;51.998;4.466;2022-07-10T11:36:38;2.78;;;1.00;;
68757;SDS011;55747;51.998;4.466;2022-07-10T11:39:05;2.10;;;1.00;;
68757;SDS011;55747;51.998;4.466;2022-07-10T11:41:34;3.47;;;0.90;;
68757;SDS011;55747;51.998;4.466;2022-07-10T11:44:08;3.67;;;0.95;;
68757;SDS011;55747;51.998;4.466;2022-07-10T11:46:38;2.50;;;0.90;;
68757;SDS011;55747;51.998;4.466;2022-07-10T11:49:04;2.58;;;1.00;;
68757;SDS011;55747;51.998;4.466;2022-07-10T11:51:35;2.50;;;0.90;;
68757;SDS011;55747;51.998;4.466;2022-07-10T11:54:08;2.90;;;1.00;;
68757;SDS011;55747;51.998;4.466;2022-07-10T11:56:40;2.38;;;0.93;;
68757;SDS011;55747;51.998;4.466;2022-07-10T11:59:17;2.63;;;0.90;;
68757;SDS011;55747;51.998;4.466;2022-07-10T12:01:48;1.67;;;0.73;;
68757;SDS011;55747;51.998;4.466;2022-07-10T12:04:16;1.75;;;1.00;;
68757;SDS011;55747;51.998;4.466;2022-07-10T12:06:50;2.00;;;0.80;;
68757;SDS011;55747;51.998;4.466;2022-07-10T12:09:17;2.28;;;0.70;;
68757;SDS011;55747;51.998;4.466;2022-07-10T12:11:44;2.05;;;0.90;;
68757;SDS011;55747;51.998;4.466;2022-07-10T12:14:22;2.13;;;1.02;;
68757;SDS011;55747;51.998;4.466;2022-07-10T12:16:50;2.35;;;1.00;;
68757;SDS011;55747;51.998;4.466;2022-07-10T12:19:17;1.58;;;0.80;;
68757;SDS011;55747;51.998;4.466;2022-07-10T12:21:45;2.95;;;1.10;;
68757;SDS011;55747;51.998;4.466;2022-07-10T12:24:12;1.73;;;0.85;;
68757;SDS011;55747;51.998;4.466;2022-07-10T12:26:39;4.05;;;0.90;;
68757;SDS011;55747;51.998;4.466;2022-07-10T12:29:07;3.05;;;0.98;;
68757;SDS011;55747;51.998;4.466;2022-07-10T12:31:37;3.23;;;0.90;;
68757;SDS011;55747;51.998;4.466;2022-07-10T12:34:03;2.17;;;0.95;;
68757;SDS011;55747;51.998;4.466;2022-07-10T12:39:12;2.22;;;0.80;;
68757;SDS011;55747;51.998;4.466;2022-07-10T12:49:49;3.45;;;0.90;;
68757;SDS011;55747;51.998;4.466;2022-07-10T12:52:35;2.97;;;1.00;;
68757;SDS011;55747;51.998;4.466;2022-07-10T12:58:04;3.10;;;1.10;;
68757;SDS011;55747;51.998;4.466;2022-07-10T13:00:31;2.00;;;0.80;;
68757;SDS011;55747;51.998;4.466;2022-07-10T13:03:04;4.18;;;1.20;;
68757;SDS011;55747;51.998;4.466;2022-07-10T13:10:44;4.30;;;1.08;;
68757;SDS011;55747;51.998;4.466;2022-07-10T13:13:12;2.75;;;0.95;;
68757;SDS011;55747;51.998;4.466;2022-07-10T13:15:38;2.85;;;1.10;;
68757;SDS011;55747;51.998;4.466;2022-07-10T13:18:18;2.83;;;1.05;;
68757;SDS011;55747;51.998;4.466;2022-07-10T13:20:46;3.60;;;1.17;;
68757;SDS011;55747;51.998;4.466;2022-07-10T13:23:12;7.13;;;1.30;;
68757;SDS011;55747;51.998;4.466;2022-07-10T13:25:38;3.45;;;1.13;;
68757;SDS011;55747;51.998;4.466;2022-07-10T13:28:07;3.25;;;1.10;;
68757;SDS011;55747;51.998;4.466;2022-07-10T13:30:34;3.13;;;1.20;;
68757;SDS011;55747;51.998;4.466;2022-07-10T13:33:00;6.00;;;1.35;;
68757;SDS011;55747;51.998;4.466;2022-07-10T13:35:31;3.50;;;1.10;;
68757;SDS011;55747;51.998;4.466;2022-07-10T13:37:58;5.07;;;1.30;;
68757;SDS011;55747;51.998;4.466;2022-07-10T13:40:25;3.05;;;1.10;;
68757;SDS011;55747;51.998;4.466;2022-07-10T13:42:51;3.72;;;1.13;;
68757;SDS011;55747;51.998;4.466;2022-07-10T13:45:17;3.67;;;1.00;;
68757;SDS011;55747;51.998;4.466;2022-07-10T13:47:42;4.93;;;1.10;;
68757;SDS011;55747;51.998;4.466;2022-07-10T13:50:07;2.40;;;1.10;;
68757;SDS011;55747;51.998;4.466;2022-07-10T13:52:33;3.95;;;1.20;;
68757;SDS011;55747;51.998;4.466;2022-07-10T13:54:58;3.27;;;1.20;;
68757;SDS011;55747;51.998;4.466;2022-07-10T13:57:24;3.20;;;1.50;;
68757;SDS011;55747;51.998;4.466;2022-07-10T13:59:49;3.20;;;1.30;;
68757;SDS011;55747;51.998;4.466;2022-07-10T14:02:14;5.20;;;1.47;;
68757;SDS011;55747;51.998;4.466;2022-07-10T14:04:40;3.30;;;1.23;;
68757;SDS011;55747;51.998;4.466;2022-07-10T14:07:06;3.35;;;1.30;;
68757;SDS011;55747;51.998;4.466;2022-07-10T14:09:31;4.30;;;1.30;;
68757;SDS011;55747;51.998;4.466;2022-07-10T14:11:56;3.13;;;1.40;;
68757;SDS011;55747;51.998;4.466;2022-07-10T14:14:22;3.17;;;1.30;;
68757;SDS011;55747;51.998;4.466;2022-07-10T14:16:48;3.83;;;1.25;;
68757;SDS011;55747;51.998;4.466;2022-07-10T14:19:14;3.72;;;1.17;;
68757;SDS011;55747;51.998;4.466;2022-07-10T14:21:40;3.63;;;1.50;;
68757;SDS011;55747;51.998;4.466;2022-07-10T14:24:06;2.58;;;1.30;;
68757;SDS011;55747;51.998;4.466;2022-07-10T14:26:31;3.80;;;1.30;;
68757;SDS011;55747;51.998;4.466;2022-07-10T14:28:58;4.50;;;1.30;;
68757;SDS011;55747;51.998;4.466;2022-07-10T14:31:25;4.10;;;1.52;;
68757;SDS011;55747;51.998;4.466;2022-07-10T14:33:50;2.65;;;1.33;;
68757;SDS011;55747;51.998;4.466;2022-07-10T14:36:16;4.60;;;1.20;;
68757;SDS011;55747;51.998;4.466;2022-07-10T14:38:41;2.87;;;1.20;;
68757;SDS011;55747;51.998;4.466;2022-07-10T14:41:06;5.80;;;1.50;;
68757;SDS011;55747;51.998;4.466;2022-07-10T14:43:32;4.05;;;1.65;;
68757;SDS011;55747;51.998;4.466;2022-07-10T14:46:01;2.72;;;1.30;;
68757;SDS011;55747;51.998;4.466;2022-07-10T14:48:29;2.97;;;1.17;;
68757;SDS011;55747;51.998;4.466;2022-07-10T14:50:55;4.32;;;1.30;;
68757;SDS011;55747;51.998;4.466;2022-07-10T14:53:22;4.38;;;1.50;;
68757;SDS011;55747;51.998;4.466;2022-07-10T14:55:48;3.47;;;1.45;;
68757;SDS011;55747;51.998;4.466;2022-07-10T14:58:13;4.57;;;1.60;;
68757;SDS011;55747;51.998;4.466;2022-07-10T15:00:38;4.87;;;1.67;;
68757;SDS011;55747;51.998;4.466;2022-07-10T15:03:04;2.77;;;1.30;;
68757;SDS011;55747;51.998;4.466;2022-07-10T15:05:29;6.87;;;2.57;;
68757;SDS011;55747;51.998;4.466;2022-07-10T15:07:54;4.50;;;2.28;;
68757;SDS011;55747;51.998;4.466;2022-07-10T15:10:20;6.40;;;2.40;;
68757;SDS011;55747;51.998;4.466;2022-07-10T15:12:45;10.75;;;5.78;;
68757;SDS011;55747;51.998;4.466;2022-07-10T15:15:11;7.22;;;3.55;;
68757;SDS011;55747;51.998;4.466;2022-07-10T15:17:36;6.77;;;3.97;;
68757;SDS011;55747;51.998;4.466;2022-07-10T15:20:02;5.50;;;2.60;;
68757;SDS011;55747;51.998;4.466;2022-07-10T15:22:29;8.88;;;4.10;;
68757;SDS011;55747;51.998;4.466;2022-07-10T15:24:56;5.50;;;2.30;;
68757;SDS011;55747;51.998;4.466;2022-07-10T15:27:21;6.60;;;2.33;;
68757;SDS011;55747;51.998;4.466;2022-07-10T15:29:47;4.25;;;1.92;;
68757;SDS011;55747;51.998;4.466;2022-07-10T15:32:12;4.40;;;1.97;;